sensor_id;sensor_type;location;lat;lon;timestamp;P1;durP1;ratioP1;P2;durP2;ratioP2
70150;SDS011;57517;43.562;19.540;2023-06-14T00:01:25;15.15;;;12.63;;
70150;SDS011;57517;43.562;19.540;2023-06-14T00:03:51;13.50;;;11.43;;
70150;SDS011;57517;43.562;19.540;2023-06-14T00:06:17;13.40;;;11.82;;
70150;SDS011;57517;43.562;19.540;2023-06-14T00:08:43;16.77;;;11.80;;
70150;SDS011;57517;43.562;19.540;2023-06-14T00:11:09;15.50;;;12.40;;
70150;SDS011;57517;43.562;19.540;2023-06-14T00:13:35;16.83;;;12.60;;
70150;SDS011;57517;43.562;19.540;2023-06-14T00:16:01;15.52;;;12.45;;
70150;SDS011;57517;43.562;19.540;2023-06-14T00:18:26;14.88;;;11.95;;
70150;SDS011;57517;43.562;19.540;2023-06-14T00:20:54;15.57;;;12.82;;
70150;SDS011;57517;43.562;19.540;2023-06-14T00:23:20;16.63;;;12.65;;
70150;SDS011;57517;43.562;19.540;2023-06-14T00:25:46;16.73;;;13.23;;
70150;SDS011;57517;43.562;19.540;2023-06-14T00:28:12;14.73;;;12.02;;
70150;SDS011;57517;43.562;19.540;2023-06-14T00:30:38;16.50;;;12.98;;
70150;SDS011;57517;43.562;19.540;2023-06-14T00:33:04;16.30;;;13.10;;
70150;SDS011;57517;43.562;19.540;2023-06-14T00:35:30;16.77;;;13.25;;
70150;SDS011;57517;43.562;19.540;2023-06-14T00:37:56;16.17;;;13.43;;
70150;SDS011;57517;43.562;19.540;2023-06-14T00:40:22;20.17;;;13.70;;
70150;SDS011;57517;43.562;19.540;2023-06-14T00:42:48;15.35;;;13.30;;
70150;SDS011;57517;43.562;19.540;2023-06-14T00:45:14;19.15;;;13.95;;
70150;SDS011;57517;43.562;19.540;2023-06-14T00:47:40;18.80;;;14.35;;
70150;SDS011;57517;43.562;19.540;2023-06-14T00:50:08;17.90;;;13.90;;
70150;SDS011;57517;43.562;19.540;2023-06-14T00:52:34;16.67;;;13.75;;
70150;SDS011;57517;43.562;19.540;2023-06-14T00:55:01;15.52;;;13.30;;
70150;SDS011;57517;43.562;19.540;2023-06-14T00:57:27;16.77;;;13.35;;
70150;SDS011;57517;43.562;19.540;2023-06-14T00:59:54;16.85;;;13.68;;
70150;SDS011;57517;43.562;19.540;2023-06-14T01:02:20;18.70;;;13.55;;
70150;SDS011;57517;43.562;19.540;2023-06-14T01:04:47;15.07;;;12.68;;
70150;SDS011;57517;43.562;19.540;2023-06-14T01:12:39;15.63;;;12.95;;
70150;SDS011;57517;43.562;19.540;2023-06-14T01:15:12;15.95;;;12.35;;
70150;SDS011;57517;43.562;19.540;2023-06-14T01:17:38;13.10;;;11.27;;
70150;SDS011;57517;43.562;19.540;2023-06-14T01:20:06;15.90;;;13.05;;
70150;SDS011;57517;43.562;19.540;2023-06-14T01:22:35;18.23;;;12.15;;
70150;SDS011;57517;43.562;19.540;2023-06-14T01:25:01;16.55;;;13.10;;
70150;SDS011;57517;43.562;19.540;2023-06-14T01:27:27;18.60;;;12.40;;
70150;SDS011;57517;43.562;19.540;2023-06-14T01:29:57;14.60;;;12.68;;
70150;SDS011;57517;43.562;19.540;2023-06-14T01:32:26;17.58;;;12.20;;
70150;SDS011;57517;43.562;19.540;2023-06-14T01:34:53;16.38;;;12.15;;
70150;SDS011;57517;43.562;19.540;2023-06-14T01:37:19;14.88;;;11.38;;
70150;SDS011;57517;43.562;19.540;2023-06-14T01:39:47;15.43;;;10.93;;
70150;SDS011;57517;43.562;19.540;2023-06-14T01:42:14;13.63;;;11.95;;
70150;SDS011;57517;43.562;19.540;2023-06-14T01:44:41;14.10;;;11.38;;
70150;SDS011;57517;43.562;19.540;2023-06-14T01:47:09;13.98;;;11.73;;
70150;SDS011;57517;43.562;19.540;2023-06-14T01:49:35;15.98;;;11.82;;
70150;SDS011;57517;43.562;19.540;2023-06-14T01:52:03;14.70;;;12.05;;
70150;SDS011;57517;43.562;19.540;2023-06-14T01:54:29;16.02;;;12.40;;
70150;SDS011;57517;43.562;19.540;2023-06-14T01:56:55;15.05;;;12.05;;
70150;SDS011;57517;43.562;19.540;2023-06-14T01:59:22;16.05;;;12.13;;
70150;SDS011;57517;43.562;19.540;2023-06-14T02:01:47;16.02;;;12.88;;
70150;SDS011;57517;43.562;19.540;2023-06-14T02:04:13;17.08;;;12.93;;
70150;SDS011;57517;43.562;19.540;2023-06-14T02:06:39;16.27;;;12.07;;
70150;SDS011;57517;43.562;19.540;2023-06-14T02:09:05;15.02;;;11.85;;
70150;SDS011;57517;43.562;19.540;2023-06-14T02:11:31;18.40;;;12.60;;
70150;SDS011;57517;43.562;19.540;2023-06-14T02:13:57;13.45;;;11.10;;
70150;SDS011;57517;43.562;19.540;2023-06-14T02:16:25;13.82;;;11.13;;
70150;SDS011;57517;43.562;19.540;2023-06-14T02:18:53;15.60;;;12.02;;
70150;SDS011;57517;43.562;19.540;2023-06-14T02:21:18;15.35;;;12.90;;
70150;SDS011;57517;43.562;19.540;2023-06-14T02:23:44;17.08;;;12.27;;
70150;SDS011;57517;43.562;19.540;2023-06-14T02:26:10;14.70;;;12.45;;
70150;SDS011;57517;43.562;19.540;2023-06-14T02:28:36;13.82;;;11.52;;
70150;SDS011;57517;43.562;19.540;2023-06-14T02:31:02;17.85;;;12.13;;
70150;SDS011;57517;43.562;19.540;2023-06-14T02:33:28;16.88;;;11.38;;
70150;SDS011;57517;43.562;19.540;2023-06-14T02:35:53;12.93;;;11.38;;
70150;SDS011;57517;43.562;19.540;2023-06-14T02:38:19;16.58;;;12.05;;
70150;SDS011;57517;43.562;19.540;2023-06-14T02:40:45;14.13;;;11.13;;
70150;SDS011;57517;43.562;19.540;2023-06-14T02:43:11;14.05;;;11.85;;
70150;SDS011;57517;43.562;19.540;2023-06-14T02:45:37;15.00;;;12.52;;
70150;SDS011;57517;43.562;19.540;2023-06-14T02:48:03;17.40;;;13.63;;
70150;SDS011;57517;43.562;19.540;2023-06-14T02:50:29;19.13;;;14.40;;
70150;SDS011;57517;43.562;19.540;2023-06-14T02:52:55;22.08;;;14.73;;
70150;SDS011;57517;43.562;19.540;2023-06-14T02:55:22;21.38;;;16.00;;
70150;SDS011;57517;43.562;19.540;2023-06-14T02:57:48;22.02;;;16.10;;
70150;SDS011;57517;43.562;19.540;2023-06-14T03:00:14;22.55;;;17.25;;
70150;SDS011;57517;43.562;19.540;2023-06-14T03:02:41;25.40;;;17.73;;
70150;SDS011;57517;43.562;19.540;2023-06-14T03:05:08;25.65;;;17.48;;
70150;SDS011;57517;43.562;19.540;2023-06-14T03:07:35;23.52;;;16.27;;
70150;SDS011;57517;43.562;19.540;2023-06-14T03:10:06;19.98;;;15.43;;
70150;SDS011;57517;43.562;19.540;2023-06-14T03:12:34;20.13;;;14.88;;
70150;SDS011;57517;43.562;19.540;2023-06-14T03:15:00;20.67;;;14.32;;
70150;SDS011;57517;43.562;19.540;2023-06-14T03:17:26;17.27;;;14.50;;
70150;SDS011;57517;43.562;19.540;2023-06-14T03:19:55;16.95;;;13.90;;
70150;SDS011;57517;43.562;19.540;2023-06-14T03:22:20;19.15;;;14.73;;
70150;SDS011;57517;43.562;19.540;2023-06-14T03:24:47;18.38;;;15.13;;
70150;SDS011;57517;43.562;19.540;2023-06-14T03:27:13;19.38;;;15.23;;
70150;SDS011;57517;43.562;19.540;2023-06-14T03:29:39;17.23;;;14.52;;
70150;SDS011;57517;43.562;19.540;2023-06-14T03:32:05;17.98;;;13.45;;
70150;SDS011;57517;43.562;19.540;2023-06-14T03:34:31;19.58;;;14.07;;
70150;SDS011;57517;43.562;19.540;2023-06-14T03:36:56;17.80;;;14.35;;
70150;SDS011;57517;43.562;19.540;2023-06-14T03:39:22;17.23;;;14.13;;
70150;SDS011;57517;43.562;19.540;2023-06-14T03:41:48;17.88;;;13.65;;
70150;SDS011;57517;43.562;19.540;2023-06-14T03:44:15;18.63;;;14.35;;
70150;SDS011;57517;43.562;19.540;2023-06-14T03:46:42;19.17;;;14.20;;
70150;SDS011;57517;43.562;19.540;2023-06-14T03:49:08;21.80;;;16.77;;
70150;SDS011;57517;43.562;19.540;2023-06-14T03:51:35;18.48;;;15.48;;
70150;SDS011;57517;43.562;19.540;2023-06-14T03:54:01;20.88;;;15.23;;
70150;SDS011;57517;43.562;19.540;2023-06-14T03:56:27;21.73;;;15.57;;
70150;SDS011;57517;43.562;19.540;2023-06-14T03:58:53;18.63;;;15.10;;
70150;SDS011;57517;43.562;19.540;2023-06-14T04:01:18;24.27;;;17.42;;
70150;SDS011;57517;43.562;19.540;2023-06-14T04:03:45;20.33;;;15.65;;
70150;SDS011;57517;43.562;19.540;2023-06-14T04:06:11;20.95;;;15.52;;
70150;SDS011;57517;43.562;19.540;2023-06-14T04:08:37;20.23;;;15.43;;
70150;SDS011;57517;43.562;19.540;2023-06-14T04:11:04;22.75;;;16.30;;
70150;SDS011;57517;43.562;19.540;2023-06-14T04:13:30;20.75;;;16.00;;
70150;SDS011;57517;43.562;19.540;2023-06-14T04:15:56;21.40;;;15.48;;
70150;SDS011;57517;43.562;19.540;2023-06-14T04:18:22;19.10;;;14.73;;
70150;SDS011;57517;43.562;19.540;2023-06-14T04:20:48;20.38;;;13.88;;
70150;SDS011;57517;43.562;19.540;2023-06-14T04:23:18;18.55;;;13.57;;
70150;SDS011;57517;43.562;19.540;2023-06-14T04:25:44;20.58;;;14.23;;
70150;SDS011;57517;43.562;19.540;2023-06-14T04:28:15;22.13;;;15.18;;
70150;SDS011;57517;43.562;19.540;2023-06-14T04:30:42;18.63;;;14.35;;
70150;SDS011;57517;43.562;19.540;2023-06-14T04:33:09;20.67;;;15.20;;
70150;SDS011;57517;43.562;19.540;2023-06-14T04:35:36;21.00;;;15.32;;
70150;SDS011;57517;43.562;19.540;2023-06-14T04:38:03;18.73;;;14.60;;
70150;SDS011;57517;43.562;19.540;2023-06-14T04:40:35;21.23;;;14.52;;
70150;SDS011;57517;43.562;19.540;2023-06-14T04:43:10;18.67;;;13.80;;
70150;SDS011;57517;43.562;19.540;2023-06-14T04:45:40;16.10;;;13.52;;
70150;SDS011;57517;43.562;19.540;2023-06-14T04:48:06;17.98;;;14.02;;
70150;SDS011;57517;43.562;19.540;2023-06-14T04:50:32;18.15;;;12.52;;
70150;SDS011;57517;43.562;19.540;2023-06-14T04:52:58;16.98;;;12.63;;
70150;SDS011;57517;43.562;19.540;2023-06-14T04:55:24;15.82;;;12.48;;
70150;SDS011;57517;43.562;19.540;2023-06-14T04:57:51;12.85;;;11.27;;
70150;SDS011;57517;43.562;19.540;2023-06-14T05:00:20;21.08;;;14.43;;
70150;SDS011;57517;43.562;19.540;2023-06-14T05:02:46;20.15;;;15.20;;
70150;SDS011;57517;43.562;19.540;2023-06-14T05:05:14;17.40;;;14.63;;
70150;SDS011;57517;43.562;19.540;2023-06-14T05:07:40;22.15;;;14.85;;
70150;SDS011;57517;43.562;19.540;2023-06-14T05:10:06;15.98;;;13.55;;
70150;SDS011;57517;43.562;19.540;2023-06-14T05:12:32;18.63;;;13.63;;
70150;SDS011;57517;43.562;19.540;2023-06-14T05:14:59;15.50;;;13.45;;
70150;SDS011;57517;43.562;19.540;2023-06-14T05:17:25;18.63;;;14.15;;
70150;SDS011;57517;43.562;19.540;2023-06-14T05:19:53;17.23;;;12.73;;
70150;SDS011;57517;43.562;19.540;2023-06-14T05:22:20;15.57;;;13.18;;
70150;SDS011;57517;43.562;19.540;2023-06-14T05:24:46;13.82;;;12.35;;
70150;SDS011;57517;43.562;19.540;2023-06-14T05:27:13;17.90;;;13.93;;
70150;SDS011;57517;43.562;19.540;2023-06-14T05:29:39;15.80;;;13.98;;
70150;SDS011;57517;43.562;19.540;2023-06-14T05:32:05;20.45;;;15.45;;
70150;SDS011;57517;43.562;19.540;2023-06-14T05:34:31;17.50;;;14.48;;
70150;SDS011;57517;43.562;19.540;2023-06-14T05:36:57;16.85;;;13.95;;
70150;SDS011;57517;43.562;19.540;2023-06-14T05:39:24;16.80;;;14.30;;
70150;SDS011;57517;43.562;19.540;2023-06-14T05:41:49;16.55;;;14.02;;
70150;SDS011;57517;43.562;19.540;2023-06-14T05:44:15;16.20;;;14.07;;
70150;SDS011;57517;43.562;19.540;2023-06-14T05:46:41;18.35;;;15.18;;
70150;SDS011;57517;43.562;19.540;2023-06-14T05:49:07;15.27;;;12.90;;
70150;SDS011;57517;43.562;19.540;2023-06-14T05:51:32;16.83;;;13.00;;
70150;SDS011;57517;43.562;19.540;2023-06-14T05:54:00;14.10;;;12.00;;
70150;SDS011;57517;43.562;19.540;2023-06-14T05:56:26;15.07;;;12.18;;
70150;SDS011;57517;43.562;19.540;2023-06-14T05:58:52;15.32;;;12.20;;
70150;SDS011;57517;43.562;19.540;2023-06-14T06:01:17;16.70;;;12.07;;
70150;SDS011;57517;43.562;19.540;2023-06-14T06:03:43;16.15;;;11.98;;
70150;SDS011;57517;43.562;19.540;2023-06-14T06:06:11;15.10;;;12.02;;
70150;SDS011;57517;43.562;19.540;2023-06-14T06:08:37;15.13;;;13.50;;
70150;SDS011;57517;43.562;19.540;2023-06-14T06:11:05;24.70;;;18.63;;
70150;SDS011;57517;43.562;19.540;2023-06-14T06:13:31;17.10;;;12.52;;
70150;SDS011;57517;43.562;19.540;2023-06-14T06:15:57;15.07;;;12.02;;
70150;SDS011;57517;43.562;19.540;2023-06-14T06:18:23;12.23;;;10.32;;
70150;SDS011;57517;43.562;19.540;2023-06-14T06:20:49;14.10;;;10.48;;
70150;SDS011;57517;43.562;19.540;2023-06-14T06:23:17;11.60;;;9.57;;
70150;SDS011;57517;43.562;19.540;2023-06-14T06:25:43;11.80;;;10.30;;
70150;SDS011;57517;43.562;19.540;2023-06-14T06:28:08;11.60;;;9.57;;
70150;SDS011;57517;43.562;19.540;2023-06-14T06:30:34;10.32;;;9.02;;
70150;SDS011;57517;43.562;19.540;2023-06-14T06:33:01;11.68;;;9.85;;
70150;SDS011;57517;43.562;19.540;2023-06-14T06:35:28;10.95;;;9.18;;
70150;SDS011;57517;43.562;19.540;2023-06-14T06:37:55;11.45;;;8.85;;
70150;SDS011;57517;43.562;19.540;2023-06-14T06:40:22;11.05;;;9.70;;
70150;SDS011;57517;43.562;19.540;2023-06-14T06:42:48;14.15;;;11.02;;
70150;SDS011;57517;43.562;19.540;2023-06-14T06:45:15;11.32;;;10.13;;
70150;SDS011;57517;43.562;19.540;2023-06-14T06:47:41;14.73;;;11.55;;
70150;SDS011;57517;43.562;19.540;2023-06-14T06:50:07;12.55;;;10.65;;
70150;SDS011;57517;43.562;19.540;2023-06-14T06:52:33;12.60;;;9.93;;
70150;SDS011;57517;43.562;19.540;2023-06-14T06:54:58;12.18;;;9.73;;
70150;SDS011;57517;43.562;19.540;2023-06-14T06:57:24;14.00;;;12.00;;
70150;SDS011;57517;43.562;19.540;2023-06-14T06:59:50;12.80;;;10.15;;
70150;SDS011;57517;43.562;19.540;2023-06-14T07:02:16;12.80;;;10.70;;
70150;SDS011;57517;43.562;19.540;2023-06-14T07:04:43;11.80;;;10.60;;
70150;SDS011;57517;43.562;19.540;2023-06-14T07:07:09;13.50;;;12.10;;
70150;SDS011;57517;43.562;19.540;2023-06-14T07:09:35;17.17;;;15.73;;
70150;SDS011;57517;43.562;19.540;2023-06-14T07:12:01;21.55;;;17.42;;
70150;SDS011;57517;43.562;19.540;2023-06-14T07:14:27;15.30;;;13.80;;
70150;SDS011;57517;43.562;19.540;2023-06-14T07:16:54;20.75;;;14.73;;
70150;SDS011;57517;43.562;19.540;2023-06-14T07:19:20;12.27;;;11.07;;
70150;SDS011;57517;43.562;19.540;2023-06-14T07:21:46;10.93;;;9.93;;
70150;SDS011;57517;43.562;19.540;2023-06-14T07:24:13;11.25;;;10.13;;
70150;SDS011;57517;43.562;19.540;2023-06-14T07:26:39;12.10;;;10.77;;
70150;SDS011;57517;43.562;19.540;2023-06-14T07:29:04;11.65;;;10.48;;
70150;SDS011;57517;43.562;19.540;2023-06-14T07:31:30;12.02;;;10.75;;
70150;SDS011;57517;43.562;19.540;2023-06-14T07:33:56;11.05;;;9.80;;
70150;SDS011;57517;43.562;19.540;2023-06-14T07:36:22;12.27;;;11.00;;
70150;SDS011;57517;43.562;19.540;2023-06-14T07:38:48;10.85;;;9.80;;
70150;SDS011;57517;43.562;19.540;2023-06-14T07:41:14;12.77;;;11.45;;
70150;SDS011;57517;43.562;19.540;2023-06-14T07:43:39;12.75;;;10.73;;
70150;SDS011;57517;43.562;19.540;2023-06-14T07:46:05;12.10;;;10.90;;
70150;SDS011;57517;43.562;19.540;2023-06-14T07:48:31;13.05;;;10.85;;
70150;SDS011;57517;43.562;19.540;2023-06-14T07:50:57;11.07;;;9.90;;
70150;SDS011;57517;43.562;19.540;2023-06-14T07:53:22;10.20;;;9.20;;
70150;SDS011;57517;43.562;19.540;2023-06-14T07:55:48;11.98;;;10.70;;
70150;SDS011;57517;43.562;19.540;2023-06-14T07:58:15;12.68;;;9.68;;
70150;SDS011;57517;43.562;19.540;2023-06-14T08:00:41;12.95;;;10.95;;
70150;SDS011;57517;43.562;19.540;2023-06-14T08:03:07;13.43;;;10.63;;
70150;SDS011;57517;43.562;19.540;2023-06-14T08:05:32;12.30;;;8.55;;
70150;SDS011;57517;43.562;19.540;2023-06-14T08:07:58;12.98;;;10.32;;
70150;SDS011;57517;43.562;19.540;2023-06-14T08:10:24;10.18;;;8.90;;
70150;SDS011;57517;43.562;19.540;2023-06-14T08:12:50;9.98;;;8.98;;
70150;SDS011;57517;43.562;19.540;2023-06-14T08:15:16;9.32;;;8.38;;
70150;SDS011;57517;43.562;19.540;2023-06-14T08:17:43;10.68;;;8.85;;
70150;SDS011;57517;43.562;19.540;2023-06-14T08:20:09;10.18;;;9.05;;
70150;SDS011;57517;43.562;19.540;2023-06-14T08:22:35;9.43;;;8.25;;
70150;SDS011;57517;43.562;19.540;2023-06-14T08:25:02;9.52;;;7.93;;
70150;SDS011;57517;43.562;19.540;2023-06-14T08:27:28;8.88;;;7.97;;
70150;SDS011;57517;43.562;19.540;2023-06-14T08:29:54;9.05;;;7.97;;
70150;SDS011;57517;43.562;19.540;2023-06-14T08:32:21;17.73;;;13.93;;
70150;SDS011;57517;43.562;19.540;2023-06-14T08:34:47;9.20;;;8.30;;
70150;SDS011;57517;43.562;19.540;2023-06-14T08:37:13;14.57;;;10.80;;
70150;SDS011;57517;43.562;19.540;2023-06-14T08:39:39;9.85;;;8.23;;
70150;SDS011;57517;43.562;19.540;2023-06-14T08:42:05;11.98;;;8.77;;
70150;SDS011;57517;43.562;19.540;2023-06-14T08:44:33;11.32;;;8.90;;
70150;SDS011;57517;43.562;19.540;2023-06-14T08:46:59;10.02;;;8.00;;
70150;SDS011;57517;43.562;19.540;2023-06-14T08:49:25;42.20;;;38.38;;
70150;SDS011;57517;43.562;19.540;2023-06-14T08:51:54;50.67;;;46.25;;
70150;SDS011;57517;43.562;19.540;2023-06-14T08:54:23;44.50;;;40.38;;
70150;SDS011;57517;43.562;19.540;2023-06-14T08:56:52;34.28;;;30.95;;
70150;SDS011;57517;43.562;19.540;2023-06-14T08:59:23;22.10;;;19.83;;
70150;SDS011;57517;43.562;19.540;2023-06-14T09:01:53;16.30;;;14.70;;
70150;SDS011;57517;43.562;19.540;2023-06-14T09:04:22;13.63;;;12.25;;
70150;SDS011;57517;43.562;19.540;2023-06-14T09:06:53;14.57;;;13.07;;
70150;SDS011;57517;43.562;19.540;2023-06-14T09:09:20;15.20;;;13.70;;
70150;SDS011;57517;43.562;19.540;2023-06-14T09:11:48;12.45;;;9.32;;
70150;SDS011;57517;43.562;19.540;2023-06-14T09:14:20;10.60;;;7.38;;
70150;SDS011;57517;43.562;19.540;2023-06-14T09:16:51;18.17;;;12.00;;
70150;SDS011;57517;43.562;19.540;2023-06-14T09:19:21;14.85;;;10.95;;
70150;SDS011;57517;43.562;19.540;2023-06-14T09:21:50;15.35;;;11.95;;
70150;SDS011;57517;43.562;19.540;2023-06-14T09:24:18;9.90;;;8.90;;
70150;SDS011;57517;43.562;19.540;2023-06-14T09:26:46;9.93;;;8.43;;
70150;SDS011;57517;43.562;19.540;2023-06-14T09:29:12;9.88;;;8.82;;
70150;SDS011;57517;43.562;19.540;2023-06-14T09:31:38;11.70;;;8.65;;
70150;SDS011;57517;43.562;19.540;2023-06-14T09:34:04;11.00;;;8.75;;
70150;SDS011;57517;43.562;19.540;2023-06-14T09:36:31;8.18;;;7.32;;
70150;SDS011;57517;43.562;19.540;2023-06-14T09:38:58;9.38;;;5.97;;
70150;SDS011;57517;43.562;19.540;2023-06-14T09:41:31;8.95;;;6.38;;
70150;SDS011;57517;43.562;19.540;2023-06-14T09:43:59;7.13;;;5.90;;
70150;SDS011;57517;43.562;19.540;2023-06-14T09:46:28;8.85;;;6.25;;
70150;SDS011;57517;43.562;19.540;2023-06-14T09:48:58;7.45;;;6.32;;
70150;SDS011;57517;43.562;19.540;2023-06-14T09:51:24;8.65;;;6.25;;
70150;SDS011;57517;43.562;19.540;2023-06-14T09:53:52;6.50;;;5.28;;
70150;SDS011;57517;43.562;19.540;2023-06-14T09:56:28;11.65;;;6.10;;
70150;SDS011;57517;43.562;19.540;2023-06-14T09:58:58;7.97;;;5.70;;
70150;SDS011;57517;43.562;19.540;2023-06-14T10:01:25;7.15;;;5.80;;
70150;SDS011;57517;43.562;19.540;2023-06-14T10:04:02;16.20;;;11.82;;
70150;SDS011;57517;43.562;19.540;2023-06-14T10:06:29;10.80;;;9.45;;
70150;SDS011;57517;43.562;19.540;2023-06-14T10:08:57;13.00;;;9.00;;
70150;SDS011;57517;43.562;19.540;2023-06-14T10:11:27;7.47;;;6.10;;
70150;SDS011;57517;43.562;19.540;2023-06-14T10:13:54;7.40;;;6.13;;
70150;SDS011;57517;43.562;19.540;2023-06-14T10:24:37;10.57;;;7.18;;
70150;SDS011;57517;43.562;19.540;2023-06-14T10:27:07;10.15;;;6.70;;
70150;SDS011;57517;43.562;19.540;2023-06-14T10:32:33;6.90;;;5.70;;
70150;SDS011;57517;43.562;19.540;2023-06-14T10:35:05;9.32;;;5.82;;
70150;SDS011;57517;43.562;19.540;2023-06-14T10:37:32;7.47;;;5.55;;
70150;SDS011;57517;43.562;19.540;2023-06-14T10:39:58;6.93;;;5.50;;
70150;SDS011;57517;43.562;19.540;2023-06-14T10:42:27;8.23;;;6.13;;
70150;SDS011;57517;43.562;19.540;2023-06-14T10:44:56;8.77;;;6.38;;
70150;SDS011;57517;43.562;19.540;2023-06-14T10:52:39;7.03;;;6.22;;
70150;SDS011;57517;43.562;19.540;2023-06-14T10:57:37;8.38;;;6.70;;
70150;SDS011;57517;43.562;19.540;2023-06-14T11:00:05;8.40;;;6.70;;
70150;SDS011;57517;43.562;19.540;2023-06-14T11:05:25;12.10;;;8.52;;
70150;SDS011;57517;43.562;19.540;2023-06-14T11:10:52;9.30;;;7.85;;
70150;SDS011;57517;43.562;19.540;2023-06-14T11:13:24;11.15;;;9.13;;
70150;SDS011;57517;43.562;19.540;2023-06-14T11:15:50;14.93;;;8.40;;
70150;SDS011;57517;43.562;19.540;2023-06-14T11:18:18;11.50;;;8.10;;
70150;SDS011;57517;43.562;19.540;2023-06-14T11:20:49;10.88;;;7.82;;
70150;SDS011;57517;43.562;19.540;2023-06-14T11:23:15;8.18;;;6.05;;
70150;SDS011;57517;43.562;19.540;2023-06-14T11:25:41;7.82;;;6.05;;
70150;SDS011;57517;43.562;19.540;2023-06-14T11:28:07;7.60;;;6.57;;
70150;SDS011;57517;43.562;19.540;2023-06-14T11:30:32;7.43;;;6.00;;
70150;SDS011;57517;43.562;19.540;2023-06-14T11:32:58;9.43;;;7.07;;
70150;SDS011;57517;43.562;19.540;2023-06-14T11:35:25;8.10;;;5.60;;
70150;SDS011;57517;43.562;19.540;2023-06-14T11:37:56;7.25;;;4.68;;
70150;SDS011;57517;43.562;19.540;2023-06-14T11:40:23;10.48;;;4.60;;
70150;SDS011;57517;43.562;19.540;2023-06-14T11:42:51;5.72;;;2.55;;
70150;SDS011;57517;43.562;19.540;2023-06-14T11:45:26;4.78;;;2.70;;
70150;SDS011;57517;43.562;19.540;2023-06-14T11:47:54;5.07;;;2.80;;
70150;SDS011;57517;43.562;19.540;2023-06-14T11:50:23;6.25;;;3.80;;
70150;SDS011;57517;43.562;19.540;2023-06-14T11:52:56;7.35;;;3.33;;
70150;SDS011;57517;43.562;19.540;2023-06-14T11:55:38;4.25;;;2.60;;
70150;SDS011;57517;43.562;19.540;2023-06-14T11:58:05;3.88;;;2.20;;
70150;SDS011;57517;43.562;19.540;2023-06-14T12:00:31;4.43;;;2.42;;
70150;SDS011;57517;43.562;19.540;2023-06-14T12:02:57;3.78;;;2.13;;
70150;SDS011;57517;43.562;19.540;2023-06-14T12:05:24;5.97;;;2.50;;
70150;SDS011;57517;43.562;19.540;2023-06-14T12:07:57;5.45;;;2.63;;
70150;SDS011;57517;43.562;19.540;2023-06-14T12:10:24;5.60;;;2.63;;
70150;SDS011;57517;43.562;19.540;2023-06-14T12:12:51;4.50;;;2.45;;
70150;SDS011;57517;43.562;19.540;2023-06-14T12:15:22;4.03;;;2.50;;
70150;SDS011;57517;43.562;19.540;2023-06-14T12:17:47;7.75;;;4.68;;
70150;SDS011;57517;43.562;19.540;2023-06-14T12:20:13;5.82;;;3.60;;
70150;SDS011;57517;43.562;19.540;2023-06-14T12:22:51;4.78;;;3.20;;
70150;SDS011;57517;43.562;19.540;2023-06-14T12:25:28;4.18;;;2.92;;
70150;SDS011;57517;43.562;19.540;2023-06-14T12:27:58;5.75;;;3.53;;
70150;SDS011;57517;43.562;19.540;2023-06-14T12:30:28;4.70;;;3.15;;
70150;SDS011;57517;43.562;19.540;2023-06-14T12:32:54;5.68;;;3.97;;
70150;SDS011;57517;43.562;19.540;2023-06-14T12:35:20;6.03;;;4.57;;
70150;SDS011;57517;43.562;19.540;2023-06-14T12:37:46;9.30;;;5.90;;
70150;SDS011;57517;43.562;19.540;2023-06-14T12:40:12;9.18;;;5.97;;
70150;SDS011;57517;43.562;19.540;2023-06-14T12:42:39;11.25;;;4.90;;
70150;SDS011;57517;43.562;19.540;2023-06-14T12:45:06;10.00;;;6.25;;
70150;SDS011;57517;43.562;19.540;2023-06-14T12:47:32;13.57;;;6.28;;
70150;SDS011;57517;43.562;19.540;2023-06-14T12:49:57;10.70;;;4.63;;
70150;SDS011;57517;43.562;19.540;2023-06-14T12:52:23;6.03;;;3.78;;
70150;SDS011;57517;43.562;19.540;2023-06-14T12:54:49;10.73;;;5.88;;
70150;SDS011;57517;43.562;19.540;2023-06-14T12:57:15;20.98;;;13.73;;
70150;SDS011;57517;43.562;19.540;2023-06-14T12:59:41;7.55;;;4.63;;
70150;SDS011;57517;43.562;19.540;2023-06-14T13:02:16;4.50;;;3.08;;
70150;SDS011;57517;43.562;19.540;2023-06-14T13:04:43;4.70;;;3.10;;
70150;SDS011;57517;43.562;19.540;2023-06-14T13:07:09;5.72;;;3.95;;
70150;SDS011;57517;43.562;19.540;2023-06-14T13:09:39;6.10;;;3.90;;
70150;SDS011;57517;43.562;19.540;2023-06-14T13:12:06;8.23;;;3.90;;
70150;SDS011;57517;43.562;19.540;2023-06-14T13:14:32;5.78;;;4.15;;
70150;SDS011;57517;43.562;19.540;2023-06-14T13:16:58;8.52;;;4.93;;
70150;SDS011;57517;43.562;19.540;2023-06-14T13:19:24;7.47;;;3.70;;
70150;SDS011;57517;43.562;19.540;2023-06-14T13:21:50;6.40;;;4.22;;
70150;SDS011;57517;43.562;19.540;2023-06-14T13:24:16;6.03;;;3.97;;
70150;SDS011;57517;43.562;19.540;2023-06-14T13:26:42;6.10;;;3.65;;
70150;SDS011;57517;43.562;19.540;2023-06-14T13:29:08;7.97;;;5.30;;
70150;SDS011;57517;43.562;19.540;2023-06-14T13:31:33;5.70;;;4.25;;
70150;SDS011;57517;43.562;19.540;2023-06-14T13:34:01;7.90;;;5.20;;
70150;SDS011;57517;43.562;19.540;2023-06-14T13:36:27;8.95;;;6.38;;
70150;SDS011;57517;43.562;19.540;2023-06-14T13:38:53;5.60;;;4.25;;
70150;SDS011;57517;43.562;19.540;2023-06-14T13:41:20;4.97;;;3.72;;
70150;SDS011;57517;43.562;19.540;2023-06-14T13:43:45;5.95;;;3.45;;
70150;SDS011;57517;43.562;19.540;2023-06-14T13:46:11;5.43;;;3.60;;
70150;SDS011;57517;43.562;19.540;2023-06-14T13:48:37;6.45;;;3.50;;
70150;SDS011;57517;43.562;19.540;2023-06-14T13:51:03;6.55;;;4.90;;
70150;SDS011;57517;43.562;19.540;2023-06-14T13:53:29;8.23;;;4.80;;
70150;SDS011;57517;43.562;19.540;2023-06-14T13:55:55;8.25;;;5.45;;
70150;SDS011;57517;43.562;19.540;2023-06-14T13:58:21;6.85;;;4.13;;
70150;SDS011;57517;43.562;19.540;2023-06-14T14:00:48;7.03;;;4.78;;
70150;SDS011;57517;43.562;19.540;2023-06-14T14:03:14;6.25;;;4.15;;
70150;SDS011;57517;43.562;19.540;2023-06-14T14:05:40;6.13;;;4.13;;
70150;SDS011;57517;43.562;19.540;2023-06-14T14:08:05;6.30;;;4.40;;
70150;SDS011;57517;43.562;19.540;2023-06-14T14:10:31;13.23;;;9.88;;
70150;SDS011;57517;43.562;19.540;2023-06-14T14:12:58;7.70;;;5.85;;
70150;SDS011;57517;43.562;19.540;2023-06-14T14:15:24;7.45;;;5.80;;
70150;SDS011;57517;43.562;19.540;2023-06-14T14:17:50;7.30;;;4.60;;
70150;SDS011;57517;43.562;19.540;2023-06-14T14:20:16;5.95;;;4.22;;
70150;SDS011;57517;43.562;19.540;2023-06-14T14:22:42;8.48;;;4.63;;
70150;SDS011;57517;43.562;19.540;2023-06-14T14:25:08;6.78;;;4.40;;
70150;SDS011;57517;43.562;19.540;2023-06-14T14:27:35;6.65;;;4.10;;
70150;SDS011;57517;43.562;19.540;2023-06-14T14:30:02;8.60;;;6.50;;
70150;SDS011;57517;43.562;19.540;2023-06-14T14:32:31;9.35;;;5.38;;
70150;SDS011;57517;43.562;19.540;2023-06-14T14:34:57;7.78;;;5.35;;
70150;SDS011;57517;43.562;19.540;2023-06-14T14:37:23;5.53;;;3.85;;
70150;SDS011;57517;43.562;19.540;2023-06-14T14:39:48;5.03;;;3.45;;
70150;SDS011;57517;43.562;19.540;2023-06-14T14:42:14;6.05;;;3.70;;
70150;SDS011;57517;43.562;19.540;2023-06-14T14:44:40;5.68;;;3.70;;
70150;SDS011;57517;43.562;19.540;2023-06-14T14:47:06;4.78;;;3.60;;